Isle La Motte, VT

5:40 AM EDT on September 02, 2014 (GMT -0400)
Burlington International | Change Station
CLOSE
Current Station
Airport
Location: Burlington,
Elevation: 341 ft
Nearby Weather Stations

Elev 341 ft 44.47 °N, 73.15 °W | Updated 46 minutes ago

Scattered Clouds
Scattered Clouds
73 °F
Feels Like 73 °F
N
10
Wind Variable Wind from South

Today
High -- | Low -- °F
--% Chance of Precip.
Yesterday
High -- | Low -- °F
Precip. -- in
6:16 AM 7:28 PM
Waxing Crescent, 49% visible
Pressure 29.82 in
Visibility 10.0 miles
Clouds Scattered Clouds 8000 ft
Dew Point 66 °F
Humidity 79%
Rainfall 0.00 in
Snow Depth Not available.
UV 0 out of 12
Pollen 6.90 out of 12
Air Quality Not available.
Flu Activity Not available.
METAR KBTV 020854Z 18009KT 10SM SCT080 23/19 A2982 RMK AO2 SLP096 T02280189 58009

More Conditions Fewer Conditions

Pressure 29.82 in
Visibility 10.0 miles
Clouds Scattered Clouds 8000 ft
Dew Point 66 °F
Humidity 79%
Rainfall 0.00 in
Snow Depth Not available.
UV 0 out of 12
Pollen 6.90 out of 12
Air Quality Not available.
Flu Activity Not available.
METAR KBTV 020854Z 18009KT 10SM SCT080 23/19 A2982 RMK AO2 SLP096 T02280189 58009

More Conditions Fewer Conditions

10-Day Weather Forecast

Almanac

Astronomy

Sep. 02, 2014 Rise Set
Actual Time 6:16 AM EDT 7:28 PM EDT
Civil Twilight 5:46 AM EDT 7:58 PM EDT
Nautical Twilight 5:10 AM EDT 8:34 PM EDT
Astronomical Twilight 4:31 AM EDT 9:12 PM EDT
Moon 2:16 PM EDT No Moon Set
Length of Visible Light 14h 12m
Length of Day
13h 11m
Tomorrow will be 3m 1s shorter.
Waxing Crescent, 49% of the Moon is Illuminated
Today
Waxing Crescent
Sep 2
First Quarter
Sep 8
Full
Sep 15
Last Quarter
Sep 24
New

Today's Extremes

State Highs State Lows

Community

WunderPhotos

Upload Photos

1,749,587 photos uploaded!

WunderBlogs® & News

Nearby

Snow Depth

Station Depth Elevation
No new snow has been reported.

Earthquake Activity

City Distance Mag. Time & Date
No recent earthquake activity has been reported nearby.
Minimum magnitude displayed is 2.5.

Coastal Water Temperatures

Place Temperature
No Stations Reporting

Nearby Weather Stations